Time;durP1;ratioP1;P1;durP2;ratioP2;P2;SDS_P1;SDS_P2;PMS_P1;PMS_P2;Temp;Humidity;BMP_temperature;BMP_pressure;BME280_temperature;BME280_humidity;BME280_pressure;Samples;Min_cycle;Max_cycle;Signal;HPM_P1;HPM_P2
2022/12/22 03:27:47;;;;;;;12.02;7.50;;;;;;;7.44;100.00;100024.91;4977891;28;20035;-81
2022/12/22 03:30:13;;;;;;;15.98;7.88;;;;;;;7.48;100.00;100015.88;4962566;28;20042;-80
2022/12/22 03:32:38;;;;;;;14.88;7.78;;;;;;;7.50;100.00;100010.59;4969156;28;20034;-81
2022/12/22 03:35:04;;;;;;;13.50;7.38;;;;;;;7.49;100.00;100003.78;4964338;28;20049;-81
2022/12/22 03:37:29;;;;;;;11.32;7.50;;;;;;;7.41;100.00;100009.72;4963354;28;20039;-81
2022/12/22 03:39:55;;;;;;;14.40;7.72;;;;;;;7.52;100.00;100006.06;4978464;28;20050;-81
2022/12/22 03:47:49;;;;;;;13.63;8.07;;;;;;;7.51;100.00;99982.03;4968639;28;20383;-83
2022/12/22 03:50:14;;;;;;;14.30;8.43;;;;;;;7.55;100.00;99993.69;4969328;28;20038;-84
2022/12/22 03:52:40;;;;;;;12.93;8.23;;;;;;;7.64;100.00;99980.78;4968713;28;20850;-84
2022/12/22 03:55:05;;;;;;;20.73;7.97;;;;;;;7.57;100.00;99980.59;4965660;28;20515;-84
2022/12/22 03:57:31;;;;;;;14.32;8.57;;;;;;;7.56;100.00;99979.78;4971027;28;20411;-84
2022/12/22 03:59:56;;;;;;;15.38;8.70;;;;;;;7.55;100.00;99972.19;4967861;28;20059;-83
2022/12/22 04:02:22;;;;;;;12.25;7.72;;;;;;;7.54;100.00;99973.97;4978088;28;20047;-84
2022/12/22 04:04:47;;;;;;;15.40;7.80;;;;;;;7.50;100.00;99961.56;4973337;28;20054;-84
2022/12/22 04:07:13;;;;;;;13.32;8.18;;;;;;;7.47;100.00;99965.25;4950738;28;20487;-84
2022/12/22 04:12:53;;;;;;;12.55;7.78;;;;;;;7.45;100.00;99964.59;4965936;28;20039;-84
2022/12/22 04:15:08;;;;;;;14.52;8.35;;;;;;;7.63;100.00;99955.94;4959517;28;20097;-83
2022/12/22 04:17:33;;;;;;;12.73;7.35;;;;;;;7.59;100.00;99958.84;4984185;28;20027;-83
2022/12/22 04:19:59;;;;;;;11.15;7.05;;;;;;;7.49;100.00;99963.31;4944935;28;20333;-83
2022/12/22 04:22:24;;;;;;;12.13;6.60;;;;;;;7.44;100.00;99957.00;4969610;28;20072;-83
2022/12/22 04:24:50;;;;;;;15.05;7.50;;;;;;;7.38;100.00;99946.38;4967449;28;20071;-83
2022/12/22 04:27:16;;;;;;;14.57;8.10;;;;;;;7.45;100.00;99956.06;4968328;28;20043;-83
2022/12/22 04:29:41;;;;;;;11.60;6.82;;;;;;;7.41;100.00;99950.41;4967542;28;20035;-83
2022/12/22 04:32:07;;;;;;;13.15;8.05;;;;;;;7.49;100.00;99957.34;4950291;28;20042;-83
2022/12/22 04:34:32;;;;;;;12.85;7.82;;;;;;;7.43;100.00;99955.41;4964856;28;20451;-83
2022/12/22 04:36:58;;;;;;;13.85;7.80;;;;;;;7.45;100.00;99962.03;4970787;28;20043;-83
2022/12/22 04:39:23;;;;;;;14.70;7.80;;;;;;;7.50;100.00;99962.38;4974776;28;20046;-83
2022/12/22 04:41:49;;;;;;;13.32;7.50;;;;;;;7.41;100.00;99958.13;4956530;28;20038;-83
2022/12/22 04:44:14;;;;;;;11.70;6.63;;;;;;;7.36;100.00;99962.94;4968216;28;20484;-83
2022/12/22 04:46:39;;;;;;;13.40;7.88;;;;;;;7.34;100.00;99959.72;4971336;28;20590;-84
2022/12/22 04:49:05;;;;;;;18.05;10.48;;;;;;;7.47;100.00;99960.09;4970716;28;20042;-84
2022/12/22 04:51:30;;;;;;;27.60;15.13;;;;;;;7.54;100.00;99950.75;4966867;28;20391;-84
2022/12/22 04:53:56;;;;;;;15.20;9.23;;;;;;;7.44;100.00;99944.09;4965864;28;20050;-84
2022/12/22 04:56:21;;;;;;;12.40;7.43;;;;;;;7.37;100.00;99946.53;4966616;28;20089;-84
2022/12/22 04:58:47;;;;;;;11.95;7.20;;;;;;;7.32;100.00;99948.75;4949475;28;20065;-84
2022/12/22 05:01:16;;;;;;;10.30;6.20;;;;;;;7.29;100.00;99956.78;4968006;28;20472;-84
2022/12/22 05:03:41;;;;;;;13.50;7.82;;;;;;;7.28;100.00;99950.03;4954299;28;20412;-84
2022/12/22 05:06:07;;;;;;;10.45;6.57;;;;;;;7.26;100.00;99957.13;4971409;28;20053;-84
2022/12/22 05:08:33;;;;;;;12.77;7.93;;;;;;;7.22;100.00;99948.88;4973218;28;20042;-84
2022/12/22 05:10:59;;;;;;;14.82;9.13;;;;;;;7.31;100.00;99949.69;4970461;28;20043;-85
2022/12/22 05:13:24;;;;;;;12.77;7.93;;;;;;;7.27;100.00;99951.81;4973199;28;20037;-85
2022/12/22 05:15:50;;;;;;;11.73;7.30;;;;;;;7.22;100.00;99944.53;4965772;28;20051;-84
2022/12/22 05:18:15;;;;;;;12.98;7.03;;;;;;;7.22;100.00;99946.31;4967396;28;20483;-85
2022/12/22 05:20:44;;;;;;;13.85;8.10;;;;;;;7.22;100.00;99947.09;4967514;28;20055;-84
2022/12/22 05:23:10;;;;;;;14.05;8.07;;;;;;;7.21;100.00;99950.66;4944736;28;20038;-83
2022/12/22 05:25:36;;;;;;;12.38;7.68;;;;;;;7.21;100.00;99948.06;4968467;28;20039;-84
2022/12/22 05:28:01;;;;;;;12.80;7.78;;;;;;;7.18;100.00;99950.97;4970739;28;20488;-82
2022/12/22 05:30:27;;;;;;;12.70;7.43;;;;;;;7.18;100.00;99953.53;4964282;28;21671;-83
2022/12/22 05:32:52;;;;;;;14.27;7.38;;;;;;;7.17;100.00;99954.47;4974104;28;20027;-82
2022/12/22 05:35:17;;;;;;;12.80;7.57;;;;;;;7.17;100.00;99961.41;4970353;28;20692;-82
2022/12/22 05:37:43;;;;;;;13.60;8.13;;;;;;;7.16;100.00;99962.41;4957544;28;20036;-82
2022/12/22 05:40:11;;;;;;;14.25;7.97;;;;;;;7.17;100.00;99962.22;4951616;28;20042;-81
2022/12/22 05:42:36;;;;;;;14.02;7.68;;;;;;;7.16;100.00;99963.19;4976987;28;20043;-82
2022/12/22 05:45:03;;;;;;;12.73;6.97;;;;;;;7.17;100.00;99967.38;4974239;28;20043;-82
2022/12/22 05:47:28;;;;;;;12.30;7.57;;;;;;;7.16;100.00;99963.19;4970625;28;20023;-80
2022/12/22 05:49:54;;;;;;;13.98;7.85;;;;;;;7.16;100.00;99967.56;4969721;28;20456;-82
2022/12/22 05:52:19;;;;;;;11.15;7.35;;;;;;;7.18;100.00;99968.19;4972143;28;20035;-83
2022/12/22 05:54:45;;;;;;;14.07;7.88;;;;;;;7.17;100.00;99962.22;4974632;28;20214;-82
2022/12/22 05:57:10;;;;;;;16.80;8.98;;;;;;;7.22;100.00;99969.50;4968423;28;20037;-84
2022/12/22 05:59:36;;;;;;;17.80;10.02;;;;;;;7.17;100.00;99964.78;4969744;28;20489;-84
2022/12/22 06:02:01;;;;;;;15.15;8.45;;;;;;;7.18;100.00;99971.59;4956857;28;20109;-84
2022/12/22 06:04:26;;;;;;;17.83;9.35;;;;;;;7.18;100.00;99975.94;4957601;28;20066;-84
2022/12/22 06:06:52;;;;;;;15.85;8.80;;;;;;;7.16;100.00;99978.66;4966979;28;20062;-83
2022/12/22 06:09:17;;;;;;;13.38;8.68;;;;;;;7.18;100.00;99978.53;4956401;28;20487;-84
2022/12/22 06:11:43;;;;;;;16.15;8.43;;;;;;;7.17;100.00;99969.94;4973013;28;20083;-83
2022/12/22 06:14:08;;;;;;;17.33;8.27;;;;;;;7.16;100.00;99970.94;4974301;28;20050;-84
2022/12/22 06:16:34;;;;;;;13.27;7.97;;;;;;;7.16;100.00;99975.28;4961069;28;20035;-84
2022/12/22 06:18:59;;;;;;;13.07;7.72;;;;;;;7.14;100.00;99979.75;4973621;28;20050;-84
2022/12/22 06:21:25;;;;;;;12.98;8.05;;;;;;;7.13;100.00;99968.66;4970605;28;20026;-83
2022/12/22 06:23:50;;;;;;;11.32;7.00;;;;;;;7.13;100.00;99980.75;4970358;28;20051;-83
2022/12/22 06:26:17;;;;;;;12.02;7.57;;;;;;;7.12;100.00;99985.09;4972676;28;20039;-83
2022/12/22 06:28:42;;;;;;;15.60;7.55;;;;;;;7.09;100.00;99980.22;4953784;28;20035;-83
2022/12/22 06:31:07;;;;;;;13.30;8.00;;;;;;;7.11;100.00;99986.03;4966676;28;20377;-83
2022/12/22 06:33:33;;;;;;;14.30;8.50;;;;;;;7.11;100.00;99985.25;4971604;28;20026;-83
2022/12/22 06:36:03;;;;;;;14.27;7.75;;;;;;;7.12;100.00;99989.41;4962917;28;20085;-82
2022/12/22 06:38:29;;;;;;;13.55;8.25;;;;;;;7.13;100.00;99991.84;4973342;28;20545;-82
2022/12/22 06:40:54;;;;;;;13.20;7.55;;;;;;;7.13;100.00;99997.00;4967101;28;20043;-82
2022/12/22 06:43:20;;;;;;;10.77;6.68;;;;;;;7.11;100.00;100001.50;4968519;28;20046;-83
2022/12/22 06:45:45;;;;;;;13.68;7.95;;;;;;;7.11;100.00;100000.72;4979809;28;20058;-82
2022/12/22 06:48:12;;;;;;;16.52;7.47;;;;;;;7.11;100.00;100013.59;4975369;28;20035;-81
2022/12/22 06:50:37;;;;;;;13.18;6.82;;;;;;;7.09;100.00;100012.94;4967822;28;20051;-82
2022/12/22 06:53:04;;;;;;;14.95;7.65;;;;;;;7.11;100.00;100032.44;4961772;28;20050;-81
2022/12/22 06:55:29;;;;;;;13.65;7.28;;;;;;;7.09;100.00;100034.38;4971650;28;20051;-82
2022/12/22 06:57:55;;;;;;;13.90;7.82;;;;;;;7.15;100.00;100041.50;4956328;28;20022;-81
2022/12/22 07:00:21;;;;;;;12.25;6.72;;;;;;;7.12;100.00;100040.97;4970428;28;20038;-82
2022/12/22 07:02:46;;;;;;;16.27;7.30;;;;;;;7.12;100.00;100040.97;4951094;28;20043;-82
2022/12/22 07:05:12;;;;;;;10.63;6.47;;;;;;;7.13;100.00;100046.00;4966194;28;20086;-81
2022/12/22 07:07:37;;;;;;;12.63;7.40;;;;;;;7.16;100.00;100050.06;4970787;28;20108;-81
2022/12/22 07:10:04;;;;;;;12.80;7.53;;;;;;;7.23;100.00;100061.34;4952476;28;20054;-81
2022/12/22 07:12:29;;;;;;;17.13;6.68;;;;;;;7.20;100.00;100061.69;4963460;28;20738;-80
2022/12/22 07:14:55;;;;;;;16.67;7.28;;;;;;;7.26;100.00;100060.25;4967295;28;20055;-82
2022/12/22 07:17:20;;;;;;;16.60;7.72;;;;;;;7.36;100.00;100076.44;4970408;28;20400;-80
2022/12/22 07:19:46;;;;;;;19.50;7.88;;;;;;;7.50;100.00;100087.97;4960415;28;20051;-81
2022/12/22 07:22:11;;;;;;;19.15;8.68;;;;;;;7.59;100.00;100097.34;4980326;28;20392;-80
2022/12/22 07:24:37;;;;;;;16.00;7.55;;;;;;;7.64;100.00;100104.66;4966931;28;20047;-80
2022/12/22 07:27:02;;;;;;;20.80;8.77;;;;;;;7.71;100.00;100110.81;4959924;28;20038;-81
2022/12/22 07:29:28;;;;;;;21.25;9.30;;;;;;;7.68;100.00;100111.13;4968981;28;20133;-81
2022/12/22 07:31:53;;;;;;;19.70;8.20;;;;;;;7.71;100.00;100115.97;4966578;28;20062;-80
2022/12/22 07:34:19;;;;;;;20.33;9.40;;;;;;;7.70;100.00;100122.88;4964331;28;20055;-79
2022/12/22 07:36:44;;;;;;;24.13;11.30;;;;;;;7.86;100.00;100123.97;4955644;28;20027;-80
2022/12/22 07:39:11;;;;;;;24.48;11.18;;;;;;;7.89;100.00;100132.22;4974404;28;20623;-80
2022/12/22 07:44:21;;;;;;;22.92;11.38;;;;;;;7.98;100.00;100139.00;4970971;28;20045;-80
2022/12/22 07:46:46;;;;;;;27.55;11.75;;;;;;;7.92;100.00;100147.38;4960916;28;20034;-80
2022/12/22 07:51:57;;;;;;;37.40;15.65;;;;;;;8.21;100.00;100147.97;4965561;28;20078;-80
2022/12/22 07:54:24;;;;;;;32.88;14.77;;;;;;;8.12;100.00;100144.56;4949629;28;20121;-80
2022/12/22 07:56:49;;;;;;;30.02;14.32;;;;;;;8.17;100.00;100150.03;4983688;28;20511;-81
2022/12/22 07:59:15;;;;;;;32.78;16.00;;;;;;;8.19;100.00;100159.28;4974475;28;20050;-80
2022/12/22 08:01:41;;;;;;;30.05;14.95;;;;;;;8.18;100.00;100154.25;4966742;28;20454;-80
2022/12/22 08:04:11;;;;;;;32.40;15.13;;;;;;;8.27;100.00;100153.31;4965248;28;20046;-80
2022/12/22 08:06:37;;;;;;;29.48;14.75;;;;;;;8.24;100.00;100161.38;4958298;28;20038;-81
2022/12/22 08:09:04;;;;;;;28.95;14.93;;;;;;;8.30;100.00;100168.50;4946883;28;20039;-82
2022/12/22 08:11:30;;;;;;;31.45;15.32;;;;;;;8.30;100.00;100173.66;4978030;28;20073;-79
2022/12/22 08:13:56;;;;;;;31.23;15.68;;;;;;;8.34;100.00;100182.75;4966616;28;20121;-81
2022/12/22 08:16:21;;;;;;;29.42;14.68;;;;;;;8.34;100.00;100190.50;4776294;28;21189;-80
2022/12/22 08:18:48;;;;;;;29.42;13.93;;;;;;;8.33;100.00;100194.03;4923480;28;20031;-80
2022/12/22 08:21:14;;;;;;;31.85;16.73;;;;;;;8.25;100.00;100204.34;4912114;28;20039;-80
2022/12/22 08:23:40;;;;;;;35.85;16.48;;;;;;;8.41;100.00;100211.31;4777276;28;20044;-81
2022/12/22 08:26:10;;;;;;;35.13;17.70;;;;;;;8.35;100.00;100214.53;4959316;28;20032;-80
2022/12/22 08:28:42;;;;;;;35.42;17.20;;;;;;;8.31;100.00;100200.31;4930507;28;20275;-79
2022/12/22 08:31:08;;;;;;;33.08;16.33;;;;;;;8.36;100.00;100200.66;4934276;28;20075;-80
2022/12/22 08:33:34;;;;;;;33.45;15.68;;;;;;;8.36;100.00;100209.22;4929529;28;20051;-80
2022/12/22 08:36:00;;;;;;;36.58;15.85;;;;;;;8.47;100.00;100221.06;4932615;28;20362;-80
2022/12/22 08:38:25;;;;;;;37.03;16.02;;;;;;;8.41;100.00;100231.19;4956480;28;20949;-80
2022/12/22 08:40:51;;;;;;;38.97;17.25;;;;;;;8.48;100.00;100243.38;4928405;28;20378;-80
2022/12/22 08:43:17;;;;;;;36.38;16.30;;;;;;;8.42;100.00;100244.00;4922520;28;20040;-80
2022/12/22 08:45:43;;;;;;;35.60;15.45;;;;;;;8.43;100.00;100253.34;4927813;28;20046;-80
2022/12/22 08:48:09;;;;;;;32.63;15.27;;;;;;;8.49;100.00;100257.88;4959772;28;20032;-80
2022/12/22 08:50:35;;;;;;;36.08;15.57;;;;;;;8.41;100.00;100255.25;4930999;28;20046;-81
2022/12/22 08:53:02;;;;;;;34.33;14.02;;;;;;;8.47;100.00;100266.78;4946933;28;20428;-80
2022/12/22 08:55:28;;;;;;;37.90;14.93;;;;;;;8.52;100.00;100260.19;4941473;28;20465;-80
2022/12/22 08:57:53;;;;;;;34.90;14.15;;;;;;;8.46;100.00;100254.84;4959902;28;20040;-80
2022/12/22 09:00:19;;;;;;;35.88;14.80;;;;;;;8.49;100.00;100257.88;4920863;28;20039;-81
2022/12/22 09:02:45;;;;;;;36.70;15.38;;;;;;;8.47;100.00;100267.56;4958040;28;20087;-81
2022/12/22 09:05:10;;;;;;;36.88;14.52;;;;;;;8.39;100.00;100267.50;4958870;28;20043;-80
2022/12/22 09:07:35;;;;;;;40.28;15.50;;;;;;;8.41;100.00;100272.53;4946351;28;20524;-80
2022/12/22 09:10:01;;;;;;;40.13;15.25;;;;;;;8.37;100.00;100278.00;4956939;28;20413;-80
2022/12/22 09:12:26;;;;;;;41.30;16.35;;;;;;;8.38;100.00;100277.06;4944869;28;20036;-80
2022/12/22 09:14:52;;;;;;;45.88;18.15;;;;;;;8.41;100.00;100278.50;4919505;28;20044;-79
2022/12/22 09:17:17;;;;;;;39.88;16.45;;;;;;;8.44;100.00;100286.00;4914721;29;20047;-79
2022/12/22 09:19:43;;;;;;;42.05;17.13;;;;;;;8.38;100.00;100292.56;4960184;28;20047;-80
2022/12/22 09:22:10;;;;;;;44.72;17.08;;;;;;;8.53;100.00;100302.31;4944950;28;20050;-80
2022/12/22 09:24:35;;;;;;;38.22;16.52;;;;;;;8.53;100.00;100303.16;4921825;28;20105;-80
2022/12/22 09:27:02;;;;;;;39.25;16.27;;;;;;;8.54;100.00;100312.50;4943727;28;20040;-79
2022/12/22 09:29:28;;;;;;;35.88;15.85;;;;;;;8.46;100.00;100311.69;4906122;28;20167;-80
2022/12/22 09:31:53;;;;;;;36.25;15.38;;;;;;;8.48;100.00;100326.06;4952903;28;20110;-81
2022/12/22 09:34:19;;;;;;;42.00;15.93;;;;;;;8.46;100.00;100327.97;4872245;28;20150;-79
2022/12/22 09:36:45;;;;;;;35.58;15.75;;;;;;;8.46;100.00;100335.72;4922009;28;20039;-81
2022/12/22 09:39:13;;;;;;;39.90;15.90;;;;;;;8.57;100.00;100337.25;4928073;28;20130;-80
2022/12/22 09:41:53;;;;;;;33.08;14.95;;;;;;;8.58;100.00;100333.69;4954285;28;20047;-80
2022/12/22 09:44:26;;;;;;;39.08;16.88;;;;;;;8.60;100.00;100331.75;4945609;28;20043;-80
2022/12/22 09:46:54;;;;;;;38.40;16.85;;;;;;;8.61;100.00;100333.38;4941396;28;20527;-79
2022/12/22 09:49:21;;;;;;;39.60;18.05;;;;;;;8.59;100.00;100337.91;4926592;28;20055;-80
2022/12/22 09:52:00;;;;;;;43.63;18.40;;;;;;;8.53;100.00;100333.34;4929347;29;20085;-79
2022/12/22 09:54:26;;;;;;;46.20;18.92;;;;;;;8.61;100.00;100341.16;4954269;28;20131;-81
2022/12/22 09:56:51;;;;;;;43.55;17.80;;;;;;;8.63;100.00;100339.22;4956858;28;20081;-82
2022/12/22 09:59:19;;;;;;;39.03;18.45;;;;;;;8.67;100.00;100340.53;4925231;28;20091;-80
2022/12/22 10:01:56;;;;;;;42.80;18.08;;;;;;;8.70;100.00;100344.56;4959550;28;20035;-79
2022/12/22 10:04:33;;;;;;;41.58;18.30;;;;;;;8.74;100.00;100338.13;4936529;28;20128;-80
2022/12/22 10:07:15;;;;;;;49.90;19.45;;;;;;;8.69;100.00;100343.75;4959514;28;20039;-79
2022/12/22 10:09:41;;;;;;;45.28;18.55;;;;;;;8.60;100.00;100352.44;4958166;28;20048;-80
2022/12/22 10:12:14;;;;;;;44.10;18.92;;;;;;;8.70;100.00;100360.06;4944723;28;20035;-80
2022/12/22 10:14:47;;;;;;;45.38;18.63;;;;;;;8.75;100.00;100352.66;4944506;28;20072;-80
2022/12/22 10:17:28;;;;;;;49.88;20.58;;;;;;;8.66;100.00;100351.81;4920412;29;20039;-79
2022/12/22 10:20:07;;;;;;;48.95;19.98;;;;;;;8.77;100.00;100364.47;4948826;28;20055;-78
2022/12/22 10:22:38;;;;;;;49.58;19.35;;;;;;;8.79;100.00;100363.50;4933971;29;20042;-80
2022/12/22 10:25:05;;;;;;;43.53;18.75;;;;;;;8.82;100.00;100356.25;4969793;28;20048;-79
2022/12/22 10:27:35;;;;;;;43.60;20.10;;;;;;;8.90;100.00;100358.06;4933686;29;20042;-80
2022/12/22 10:30:21;;;;;;;38.88;18.55;;;;;;;8.82;100.00;100348.50;4921302;28;20126;-79
2022/12/22 10:33:03;;;;;;;41.47;18.00;;;;;;;8.87;100.00;100348.03;4932210;29;20031;-79
2022/12/22 10:35:50;;;;;;;41.95;17.95;;;;;;;8.91;100.00;100342.41;4948086;28;20050;-80
2022/12/22 10:38:38;;;;;;;38.45;18.40;;;;;;;8.85;100.00;100348.19;4933932;29;21014;-81
2022/12/22 10:41:13;;;;;;;38.67;17.65;;;;;;;8.91;100.00;100355.34;4939192;29;20047;-79
2022/12/22 10:43:47;;;;;;;40.97;17.90;;;;;;;8.97;100.00;100361.66;4934918;28;20114;-79
2022/12/22 10:46:13;;;;;;;41.97;18.02;;;;;;;8.90;100.00;100363.25;4963953;28;20031;-78
2022/12/22 10:48:39;;;;;;;41.17;18.65;;;;;;;8.70;100.00;100363.50;4924926;28;20107;-79
2022/12/22 10:51:08;;;;;;;34.47;16.90;;;;;;;8.72;100.00;100361.56;4948210;28;20692;-83
2022/12/22 10:53:42;;;;;;;41.70;18.17;;;;;;;8.74;100.00;100369.97;4927171;28;20578;-79
2022/12/22 10:56:22;;;;;;;35.50;17.17;;;;;;;8.87;100.00;100371.28;4964913;28;20503;-78
2022/12/22 10:58:55;;;;;;;42.25;17.77;;;;;;;8.85;100.00;100366.28;4954600;28;20042;-79
2022/12/22 11:01:33;;;;;;;36.90;16.65;;;;;;;8.76;100.00;100368.03;4945031;28;20728;-79
2022/12/22 11:04:24;;;;;;;40.83;16.90;;;;;;;8.69;100.00;100377.38;4944281;28;20572;-79
2022/12/22 11:06:51;;;;;;;34.83;16.92;;;;;;;8.66;100.00;100384.59;4929894;29;20040;-79
2022/12/22 11:09:17;;;;;;;37.72;18.10;;;;;;;8.61;100.00;100384.25;4933603;28;20398;-78
2022/12/22 11:11:55;;;;;;;38.65;18.13;;;;;;;8.50;100.00;100390.50;4933959;29;20032;-80
2022/12/22 11:14:39;;;;;;;40.50;18.13;;;;;;;8.57;100.00;100394.91;4933957;28;20055;-78
2022/12/22 11:17:23;;;;;;;38.90;17.85;;;;;;;8.45;100.00;100396.13;4964271;28;20047;-79
2022/12/22 11:20:00;;;;;;;41.55;18.90;;;;;;;8.49;100.00;100402.59;4925544;28;20051;-79
2022/12/22 11:22:48;;;;;;;41.70;18.00;;;;;;;8.41;100.00;100401.72;4927818;29;20047;-82
2022/12/22 11:25:40;;;;;;;43.42;18.77;;;;;;;8.40;100.00;100406.09;4960251;28;20035;-79
2022/12/22 11:28:37;;;;;;;42.08;19.02;;;;;;;8.48;100.00;100405.34;4960094;28;20502;-80
2022/12/22 11:31:14;;;;;;;43.05;19.25;;;;;;;8.53;100.00;100410.84;4936671;29;20122;-79
2022/12/22 11:34:08;;;;;;;39.50;18.38;;;;;;;8.52;100.00;100402.31;4948688;28;20047;-80
2022/12/22 11:37:15;;;;;;;43.13;17.98;;;;;;;8.54;100.00;100410.72;4957209;28;20060;-79
2022/12/22 11:39:52;;;;;;;38.00;18.25;;;;;;;8.63;100.00;100414.16;4932305;28;20062;-79
2022/12/22 11:42:36;;;;;;;41.72;18.80;;;;;;;8.67;100.00;100417.25;4932273;29;20039;-79
2022/12/22 11:45:18;;;;;;;42.72;18.73;;;;;;;8.67;100.00;100420.66;4962544;28;20394;-80
2022/12/22 11:48:11;;;;;;;37.47;16.65;;;;;;;8.50;100.00;100418.94;4929293;29;20038;-79
2022/12/22 11:50:48;;;;;;;36.63;16.48;;;;;;;8.67;100.00;100422.44;4964816;28;20039;-78
2022/12/22 11:53:45;;;;;;;35.95;16.55;;;;;;;8.58;100.00;100426.72;4932892;29;20034;-79
2022/12/22 11:56:40;;;;;;;40.85;16.85;;;;;;;8.58;100.00;100414.59;4943173;28;20043;-78
2022/12/22 11:59:36;;;;;;;32.05;15.07;;;;;;;8.60;100.00;100414.47;4930971;28;20509;-80
2022/12/22 12:02:39;;;;;;;35.70;16.08;;;;;;;8.56;100.00;100420.91;4963658;28;20110;-78
2022/12/22 12:05:27;;;;;;;35.65;16.77;;;;;;;8.66;100.00;100423.38;4932729;28;20047;-80
2022/12/22 12:08:00;;;;;;;36.20;14.95;;;;;;;8.62;100.00;100429.81;4935571;29;20036;-79
2022/12/22 12:10:30;;;;;;;32.53;16.63;;;;;;;8.79;100.00;100428.16;4938227;28;20550;-79
2022/12/22 12:13:02;;;;;;;34.13;15.50;;;;;;;8.75;100.00;100423.28;4956109;28;20028;-79
2022/12/22 12:15:36;;;;;;;27.50;12.35;;;;;;;8.76;100.00;100426.69;4934307;28;20110;-79
2022/12/22 12:18:05;;;;;;;21.13;11.20;;;;;;;8.80;100.00;100437.50;4967210;28;20050;-79
2022/12/22 12:20:58;;;;;;;26.85;10.10;;;;;;;8.83;100.00;100432.03;4961302;28;20062;-80
2022/12/22 12:23:51;;;;;;;27.17;10.70;;;;;;;8.85;100.00;100427.53;4935035;28;20052;-80
2022/12/22 12:26:29;;;;;;;24.05;10.70;;;;;;;8.68;100.00;100431.78;4936369;29;20051;-80
2022/12/22 12:29:17;;;;;;;25.92;10.20;;;;;;;8.75;100.00;100436.19;4937455;28;20078;-78
2022/12/22 12:31:57;;;;;;;20.95;10.10;;;;;;;8.65;100.00;100432.13;4929901;29;20039;-79
2022/12/22 12:34:24;;;;;;;22.00;9.48;;;;;;;8.59;100.00;100438.69;4942351;28;20037;-79
2022/12/22 12:37:29;;;;;;;25.42;10.90;;;;;;;8.49;100.00;100427.63;4950458;28;20066;-79
2022/12/22 12:40:32;;;;;;;23.10;10.52;;;;;;;8.42;100.00;100430.03;4958944;28;20040;-79
2022/12/22 12:42:58;;;;;;;;;;;;;;;8.31;100.00;100432.81;4990696;28;20070;-81
2022/12/22 12:45:40;;;;;;;23.88;10.35;;;;;;;8.37;100.00;100419.28;4944780;28;19918;-80
2022/12/22 12:48:20;;;;;;;23.55;10.57;;;;;;;8.45;100.00;100419.38;4963405;28;20032;-80
2022/12/22 12:50:53;;;;;;;24.02;9.63;;;;;;;8.47;100.00;100424.38;4959544;28;20051;-79
2022/12/22 12:53:20;;;;;;;;;;;;;;;8.29;100.00;100424.41;4957915;28;20114;-79
2022/12/22 12:55:48;;;;;;;23.20;9.85;;;;;;;8.27;100.00;100414.22;4963915;28;19918;-81
2022/12/22 12:58:33;;;;;;;21.20;10.73;;;;;;;8.22;100.00;100416.44;4952630;28;20031;-80
2022/12/22 13:01:00;;;;;;;22.73;10.43;;;;;;;8.20;100.00;100410.63;4945840;28;20062;-80
2022/12/22 13:03:28;;;;;;;20.63;9.48;;;;;;;8.13;100.00;100409.59;4951414;28;20132;-80
2022/12/22 13:06:00;;;;;;;21.67;9.25;;;;;;;8.07;100.00;100405.03;4938110;28;20077;-80
2022/12/22 13:08:29;;;;;;;19.65;9.70;;;;;;;8.11;100.00;100403.75;4931282;29;20118;-80
2022/12/22 13:10:55;;;;;;;19.33;9.65;;;;;;;8.13;100.00;100417.31;4930733;29;20493;-79
2022/12/22 13:13:20;;;;;;;18.60;8.93;;;;;;;8.16;100.00;100419.63;4933703;29;20115;-80
2022/12/22 13:15:59;;;;;;;21.08;9.35;;;;;;;8.15;100.00;100418.00;4950316;28;20078;-80
2022/12/22 13:18:24;;;;;;;18.55;8.63;;;;;;;8.22;100.00;100415.63;4968401;28;20039;-80
2022/12/22 13:20:58;;;;;;;22.77;8.95;;;;;;;8.29;100.00;100404.56;4963494;28;20532;-79
2022/12/22 13:23:29;;;;;;;18.33;9.00;;;;;;;8.45;100.00;100408.22;4937875;29;20987;-80
2022/12/22 13:25:58;;;;;;;22.95;9.50;;;;;;;8.41;100.00;100399.13;4831780;28;20049;-80
2022/12/22 13:28:26;;;;;;;21.85;8.43;;;;;;;8.34;100.00;100407.50;4937480;28;20119;-80
2022/12/22 13:30:58;;;;;;;16.60;7.97;;;;;;;8.44;100.00;100409.19;4526882;28;20563;-81
2022/12/22 13:33:28;;;;;;;18.38;8.13;;;;;;;8.49;100.00;100418.09;4785159;28;20064;-80
2022/12/22 13:35:56;;;;;;;16.92;8.50;;;;;;;8.53;100.00;100416.03;4961371;28;20079;-81
2022/12/22 13:38:31;;;;;;;18.00;8.27;;;;;;;8.49;100.00;100419.88;4624648;28;20071;-80
2022/12/22 13:40:58;;;;;;;20.77;9.30;;;;;;;8.53;100.00;100423.78;4871414;29;20111;-80
2022/12/22 13:43:26;;;;;;;19.55;10.00;;;;;;;8.46;100.00;100425.38;4931687;29;20024;-79
2022/12/22 13:45:57;;;;;;;20.20;9.35;;;;;;;8.66;100.00;100424.19;4934521;28;20524;-81
2022/12/22 13:48:37;;;;;;;17.85;9.07;;;;;;;8.47;100.00;100432.16;4963556;28;20036;-80
2022/12/22 13:51:06;;;;;;;18.02;8.70;;;;;;;8.45;100.00;100437.47;4935561;29;20354;-81
2022/12/22 13:53:37;;;;;;;36.42;17.58;;;;;;;8.45;100.00;100434.88;4932179;28;20143;-80
2022/12/22 13:56:13;;;;;;;43.42;18.35;;;;;;;8.52;100.00;100433.31;4958711;28;20058;-81
2022/12/22 13:58:44;;;;;;;24.23;9.70;;;;;;;8.55;100.00;100435.59;4969260;28;20031;-80
2022/12/22 14:01:09;;;;;;;20.20;10.23;;;;;;;8.49;100.00;100432.81;4953193;28;20058;-79
2022/12/22 14:03:35;;;;;;;18.25;9.63;;;;;;;8.46;100.00;100431.34;4946883;28;20227;-80
2022/12/22 14:06:01;;;;;;;23.35;10.52;;;;;;;8.52;100.00;100430.72;4964907;28;20040;-80
2022/12/22 14:08:26;;;;;;;26.17;12.30;;;;;;;8.52;100.00;100419.59;4936511;29;20478;-80
2022/12/22 14:10:53;;;;;;;26.55;11.32;;;;;;;8.48;100.00;100420.84;4963236;28;20504;-80
2022/12/22 14:13:24;;;;;;;24.80;12.10;;;;;;;8.37;100.00;100419.28;4918343;28;20103;-81
2022/12/22 14:16:01;;;;;;;23.17;11.38;;;;;;;8.35;100.00;100419.44;4947747;28;20134;-83
2022/12/22 14:18:27;;;;;;;26.02;12.02;;;;;;;8.31;100.00;100422.50;4968456;28;20036;-80
2022/12/22 14:20:54;;;;;;;21.65;10.05;;;;;;;8.29;100.00;100427.00;4948314;28;20156;-81
2022/12/22 14:23:27;;;;;;;25.65;10.55;;;;;;;8.22;100.00;100421.59;4948015;28;20079;-81
2022/12/22 14:25:54;;;;;;;22.48;10.70;;;;;;;8.23;100.00;100417.25;4934183;28;20035;-80
2022/12/22 14:28:24;;;;;;;22.60;10.70;;;;;;;8.24;100.00;100411.94;4936831;28;20039;-81
2022/12/22 14:30:53;;;;;;;20.42;9.52;;;;;;;8.29;100.00;100411.50;4950328;28;20044;-81
2022/12/22 14:33:28;;;;;;;18.38;9.65;;;;;;;8.23;100.00;100412.91;4942276;29;20099;-81
2022/12/22 14:36:17;;;;;;;19.95;9.25;;;;;;;8.18;100.00;100418.50;4926389;28;20356;-80
2022/12/22 14:38:48;;;;;;;16.33;8.77;;;;;;;8.19;100.00;100407.22;4937001;28;20028;-80
2022/12/22 14:41:45;;;;;;;13.32;7.82;;;;;;;8.16;100.00;100404.94;4944266;28;20103;-81
2022/12/22 14:44:18;;;;;;;20.70;7.47;;;;;;;8.18;100.00;100404.78;4963079;28;20088;-80
2022/12/22 14:46:44;;;;;;;;;;;;;;;8.10;100.00;100396.97;4944862;28;21037;-80
2022/12/22 14:49:16;;;;;;;11.02;6.57;;;;;;;8.08;100.00;100386.81;4967231;28;19918;-80
2022/12/22 14:51:51;;;;;;;10.68;6.93;;;;;;;8.13;100.00;100379.38;4937694;29;20522;-80
2022/12/22 14:54:20;;;;;;;12.02;6.63;;;;;;;8.04;100.00;100364.78;4966341;28;20047;-83
2022/12/22 14:56:49;;;;;;;12.93;6.65;;;;;;;7.97;100.00;100377.50;4944782;28;20036;-80
2022/12/22 14:59:26;;;;;;;11.52;6.95;;;;;;;7.94;100.00;100369.25;4938716;28;20051;-79
2022/12/22 15:02:26;;;;;;;14.25;7.70;;;;;;;7.97;100.00;100364.59;4963684;28;20032;-79
2022/12/22 15:05:08;;;;;;;11.80;6.65;;;;;;;7.98;100.00;100362.81;4934513;28;20068;-79
2022/12/22 15:07:48;;;;;;;11.45;6.47;;;;;;;8.08;100.00;100360.97;4511067;28;20047;-78
2022/12/22 15:10:14;;;;;;;10.20;6.65;;;;;;;8.00;100.00;100363.47;4772467;28;20131;-80
2022/12/22 15:12:39;;;;;;;12.85;7.25;;;;;;;8.03;100.00;100347.69;4930342;28;20052;-79